sensor_id;sensor_type;location;lat;lon;timestamp;temperature;humidity
67555;HTU21D;54385;53.516;49.456;2023-02-28T00:01:21;-0.58;64.08
67555;HTU21D;54385;53.516;49.456;2023-02-28T00:03:47;-0.62;63.36
67555;HTU21D;54385;53.516;49.456;2023-02-28T00:06:14;-0.70;63.89
67555;HTU21D;54385;53.516;49.456;2023-02-28T00:08:41;-0.71;63.76
67555;HTU21D;54385;53.516;49.456;2023-02-28T00:11:09;-0.69;64.72
67555;HTU21D;54385;53.516;49.456;2023-02-28T00:13:37;-0.65;63.55
67555;HTU21D;54385;53.516;49.456;2023-02-28T00:16:07;-0.67;64.03
67555;HTU21D;54385;53.516;49.456;2023-02-28T00:18:35;-0.67;64.02
67555;HTU21D;54385;53.516;49.456;2023-02-28T00:21:02;-0.62;64.12
67555;HTU21D;54385;53.516;49.456;2023-02-28T00:23:28;-0.54;63.92
67555;HTU21D;54385;53.516;49.456;2023-02-28T00:25:55;-0.55;63.85
67555;HTU21D;54385;53.516;49.456;2023-02-28T00:28:22;-0.62;63.29
67555;HTU21D;54385;53.516;49.456;2023-02-28T00:30:49;-0.65;63.92
67555;HTU21D;54385;53.516;49.456;2023-02-28T00:33:16;-0.73;64.41
67555;HTU21D;54385;53.516;49.456;2023-02-28T00:35:42;-0.79;64.58
67555;HTU21D;54385;53.516;49.456;2023-02-28T00:38:13;-0.73;64.08
67555;HTU21D;54385;53.516;49.456;2023-02-28T00:40:39;-0.73;64.87
67555;HTU21D;54385;53.516;49.456;2023-02-28T00:43:06;-0.72;64.37
67555;HTU21D;54385;53.516;49.456;2023-02-28T00:45:32;-0.67;64.50
67555;HTU21D;54385;53.516;49.456;2023-02-28T00:47:58;-0.69;64.69
67555;HTU21D;54385;53.516;49.456;2023-02-28T00:50:25;-0.66;64.06
67555;HTU21D;54385;53.516;49.456;2023-02-28T00:52:51;-0.67;63.93
67555;HTU21D;54385;53.516;49.456;2023-02-28T00:55:18;-0.62;64.47
67555;HTU21D;54385;53.516;49.456;2023-02-28T00:57:44;-0.70;64.08
67555;HTU21D;54385;53.516;49.456;2023-02-28T01:00:12;-0.69;64.72
67555;HTU21D;54385;53.516;49.456;2023-02-28T01:02:39;-0.57;63.73
67555;HTU21D;54385;53.516;49.456;2023-02-28T01:05:05;-0.49;63.49
67555;HTU21D;54385;53.516;49.456;2023-02-28T01:07:32;-0.52;63.47
67555;HTU21D;54385;53.516;49.456;2023-02-28T01:09:58;-0.53;63.44
67555;HTU21D;54385;53.516;49.456;2023-02-28T01:12:24;-0.44;63.18
67555;HTU21D;54385;53.516;49.456;2023-02-28T01:14:51;-0.49;63.25
67555;HTU21D;54385;53.516;49.456;2023-02-28T01:17:17;-0.49;63.38
67555;HTU21D;54385;53.516;49.456;2023-02-28T01:19:43;-0.51;63.48
67555;HTU21D;54385;53.516;49.456;2023-02-28T01:22:10;-0.59;64.07
67555;HTU21D;54385;53.516;49.456;2023-02-28T01:24:37;-0.58;64.08
67555;HTU21D;54385;53.516;49.456;2023-02-28T01:27:03;-0.66;64.26
67555;HTU21D;54385;53.516;49.456;2023-02-28T01:29:30;-0.68;64.02
67555;HTU21D;54385;53.516;49.456;2023-02-28T01:31:56;-0.59;63.34
67555;HTU21D;54385;53.516;49.456;2023-02-28T01:34:25;-0.50;63.18
67555;HTU21D;54385;53.516;49.456;2023-02-28T01:36:51;-0.57;62.34
67555;HTU21D;54385;53.516;49.456;2023-02-28T01:39:18;-0.61;63.63
67555;HTU21D;54385;53.516;49.456;2023-02-28T01:41:44;-0.50;62.70
67555;HTU21D;54385;53.516;49.456;2023-02-28T01:47:14;-0.50;62.79
67555;HTU21D;54385;53.516;49.456;2023-02-28T01:49:41;-0.57;62.69
67555;HTU21D;54385;53.516;49.456;2023-02-28T01:52:10;-0.53;62.03
67555;HTU21D;54385;53.516;49.456;2023-02-28T01:54:40;-0.57;62.44
67555;HTU21D;54385;53.516;49.456;2023-02-28T01:57:11;-0.51;62.37
67555;HTU21D;54385;53.516;49.456;2023-02-28T01:59:52;-0.54;62.21
67555;HTU21D;54385;53.516;49.456;2023-02-28T02:02:21;-0.51;61.89
67555;HTU21D;54385;53.516;49.456;2023-02-28T02:07:49;-0.45;61.72
67555;HTU21D;54385;53.516;49.456;2023-02-28T02:10:19;-0.52;63.35
67555;HTU21D;54385;53.516;49.456;2023-02-28T02:12:55;-0.52;61.75
67555;HTU21D;54385;53.516;49.456;2023-02-28T02:17:59;-0.52;62.46
67555;HTU21D;54385;53.516;49.456;2023-02-28T02:37:27;-0.81;62.06
67555;HTU21D;54385;53.516;49.456;2023-02-28T02:40:30;-0.77;60.93
67555;HTU21D;54385;53.516;49.456;2023-02-28T02:43:08;-0.99;60.39
67555;HTU21D;54385;53.516;49.456;2023-02-28T02:45:45;-0.96;60.80
67555;HTU21D;54385;53.516;49.456;2023-02-28T02:48:16;-0.93;60.33
67555;HTU21D;54385;53.516;49.456;2023-02-28T02:50:49;-0.97;60.86
67555;HTU21D;54385;53.516;49.456;2023-02-28T02:53:19;-1.06;60.66
67555;HTU21D;54385;53.516;49.456;2023-02-28T02:55:50;-1.11;61.18
67555;HTU21D;54385;53.516;49.456;2023-02-28T02:58:24;-1.11;61.97
67555;HTU21D;54385;53.516;49.456;2023-02-28T03:00:56;-1.12;61.86
67555;HTU21D;54385;53.516;49.456;2023-02-28T03:03:24;-1.03;61.73
67555;HTU21D;54385;53.516;49.456;2023-02-28T03:05:59;-0.96;62.32
67555;HTU21D;54385;53.516;49.456;2023-02-28T03:08:27;-0.94;62.77
67555;HTU21D;54385;53.516;49.456;2023-02-28T03:11:02;-0.87;62.02
67555;HTU21D;54385;53.516;49.456;2023-02-28T03:14:09;-0.91;61.44
67555;HTU21D;54385;53.516;49.456;2023-02-28T03:20:04;-0.99;62.20
67555;HTU21D;54385;53.516;49.456;2023-02-28T03:22:50;-1.00;61.70
67555;HTU21D;54385;53.516;49.456;2023-02-28T03:25:39;-1.05;61.79
67555;HTU21D;54385;53.516;49.456;2023-02-28T03:28:21;-1.13;62.35
67555;HTU21D;54385;53.516;49.456;2023-02-28T03:31:24;-1.12;62.23
67555;HTU21D;54385;53.516;49.456;2023-02-28T03:36:53;-1.12;61.34
67555;HTU21D;54385;53.516;49.456;2023-02-28T03:39:28;-1.14;62.49
67555;HTU21D;54385;53.516;49.456;2023-02-28T03:42:24;-1.15;62.01
67555;HTU21D;54385;53.516;49.456;2023-02-28T03:45:01;-1.20;62.71
67555;HTU21D;54385;53.516;49.456;2023-02-28T03:50:33;-1.20;62.97
67555;HTU21D;54385;53.516;49.456;2023-02-28T03:53:11;-1.19;62.41
67555;HTU21D;54385;53.516;49.456;2023-02-28T03:55:49;-1.15;62.84
67555;HTU21D;54385;53.516;49.456;2023-02-28T03:58:43;-1.24;62.57
67555;HTU21D;54385;53.516;49.456;2023-02-28T04:01:35;-1.17;62.67
67555;HTU21D;54385;53.516;49.456;2023-02-28T04:04:06;-1.19;62.92
67555;HTU21D;54385;53.516;49.456;2023-02-28T04:07:22;-1.27;63.55
67555;HTU21D;54385;53.516;49.456;2023-02-28T04:09:49;-1.19;62.63
67555;HTU21D;54385;53.516;49.456;2023-02-28T04:12:22;-1.23;63.20
67555;HTU21D;54385;53.516;49.456;2023-02-28T04:15:09;-1.14;63.31
67555;HTU21D;54385;53.516;49.456;2023-02-28T04:17:38;-1.09;63.33
67555;HTU21D;54385;53.516;49.456;2023-02-28T04:20:11;-1.16;63.40
67555;HTU21D;54385;53.516;49.456;2023-02-28T04:23:01;-1.06;63.25
67555;HTU21D;54385;53.516;49.456;2023-02-28T04:25:33;-1.06;63.20
67555;HTU21D;54385;53.516;49.456;2023-02-28T04:28:06;-1.01;63.21
67555;HTU21D;54385;53.516;49.456;2023-02-28T04:30:33;-0.98;62.68
67555;HTU21D;54385;53.516;49.456;2023-02-28T04:33:05;-1.05;63.18
67555;HTU21D;54385;53.516;49.456;2023-02-28T04:35:35;-1.02;62.71
67555;HTU21D;54385;53.516;49.456;2023-02-28T04:38:22;-1.11;63.04
67555;HTU21D;54385;53.516;49.456;2023-02-28T04:41:01;-1.26;63.47
67555;HTU21D;54385;53.516;49.456;2023-02-28T04:43:41;-1.14;63.31
67555;HTU21D;54385;53.516;49.456;2023-02-28T04:46:18;-1.08;62.87
67555;HTU21D;54385;53.516;49.456;2023-02-28T04:48:50;-1.09;63.04
67555;HTU21D;54385;53.516;49.456;2023-02-28T04:51:18;-1.08;63.64
67555;HTU21D;54385;53.516;49.456;2023-02-28T04:53:55;-1.14;63.62
67555;HTU21D;54385;53.516;49.456;2023-02-28T04:56:27;-1.17;64.25
67555;HTU21D;54385;53.516;49.456;2023-02-28T04:59:38;-1.39;64.09
67555;HTU21D;54385;53.516;49.456;2023-02-28T05:02:05;-1.40;64.46
67555;HTU21D;54385;53.516;49.456;2023-02-28T05:04:38;-1.35;64.51
67555;HTU21D;54385;53.516;49.456;2023-02-28T05:07:55;-1.18;65.12
67555;HTU21D;54385;53.516;49.456;2023-02-28T05:10:49;-1.05;64.21
67555;HTU21D;54385;53.516;49.456;2023-02-28T05:13:21;-1.11;63.46
67555;HTU21D;54385;53.516;49.456;2023-02-28T05:15:52;-1.27;63.05
67555;HTU21D;54385;53.516;49.456;2023-02-28T05:19:02;-1.29;63.96
67555;HTU21D;54385;53.516;49.456;2023-02-28T05:21:41;-1.44;63.20
67555;HTU21D;54385;53.516;49.456;2023-02-28T05:24:11;-1.43;63.49
67555;HTU21D;54385;53.516;49.456;2023-02-28T05:26:42;-1.42;63.73
67555;HTU21D;54385;53.516;49.456;2023-02-28T05:29:09;-1.44;62.85
67555;HTU21D;54385;53.516;49.456;2023-02-28T05:31:36;-1.45;63.40
67555;HTU21D;54385;53.516;49.456;2023-02-28T05:34:08;-1.40;63.19
67555;HTU21D;54385;53.516;49.456;2023-02-28T05:36:37;-1.27;61.81
67555;HTU21D;54385;53.516;49.456;2023-02-28T05:39:06;-1.14;62.21
67555;HTU21D;54385;53.516;49.456;2023-02-28T05:41:34;-1.00;61.02
67555;HTU21D;54385;53.516;49.456;2023-02-28T05:44:06;-0.91;61.05
67555;HTU21D;54385;53.516;49.456;2023-02-28T05:46:49;-1.14;60.34
67555;HTU21D;54385;53.516;49.456;2023-02-28T05:49:16;-1.18;60.40
67555;HTU21D;54385;53.516;49.456;2023-02-28T05:51:42;-1.02;60.53
67555;HTU21D;54385;53.516;49.456;2023-02-28T05:54:09;-0.93;59.89
67555;HTU21D;54385;53.516;49.456;2023-02-28T05:56:35;-0.98;59.79
67555;HTU21D;54385;53.516;49.456;2023-02-28T05:59:08;-0.95;59.19
67555;HTU21D;54385;53.516;49.456;2023-02-28T06:01:43;-0.97;59.91
67555;HTU21D;54385;53.516;49.456;2023-02-28T06:04:20;-1.06;59.25
67555;HTU21D;54385;53.516;49.456;2023-02-28T06:06:48;-1.20;59.73
67555;HTU21D;54385;53.516;49.456;2023-02-28T06:09:18;-1.10;59.82
67555;HTU21D;54385;53.516;49.456;2023-02-28T06:11:45;-0.94;59.73
67555;HTU21D;54385;53.516;49.456;2023-02-28T06:14:16;-0.76;59.08
67555;HTU21D;54385;53.516;49.456;2023-02-28T06:16:43;-0.67;58.16
67555;HTU21D;54385;53.516;49.456;2023-02-28T06:19:10;-0.55;58.13
67555;HTU21D;54385;53.516;49.456;2023-02-28T06:21:37;-0.60;58.42
67555;HTU21D;54385;53.516;49.456;2023-02-28T06:24:04;-0.37;58.50
67555;HTU21D;54385;53.516;49.456;2023-02-28T06:26:35;-0.38;58.35
67555;HTU21D;54385;53.516;49.456;2023-02-28T06:29:02;-0.09;56.68
67555;HTU21D;54385;53.516;49.456;2023-02-28T06:31:28;0.02;56.58
67555;HTU21D;54385;53.516;49.456;2023-02-28T06:33:55;0.24;56.22
67555;HTU21D;54385;53.516;49.456;2023-02-28T06:36:25;0.30;55.80
67555;HTU21D;54385;53.516;49.456;2023-02-28T06:38:51;0.45;55.90
67555;HTU21D;54385;53.516;49.456;2023-02-28T06:41:23;0.54;56.17
67555;HTU21D;54385;53.516;49.456;2023-02-28T06:43:52;0.48;55.71
67555;HTU21D;54385;53.516;49.456;2023-02-28T06:46:19;0.65;55.00
67555;HTU21D;54385;53.516;49.456;2023-02-28T06:48:46;0.75;54.73
67555;HTU21D;54385;53.516;49.456;2023-02-28T06:51:20;0.83;55.20
67555;HTU21D;54385;53.516;49.456;2023-02-28T06:54:10;0.93;54.58
67555;HTU21D;54385;53.516;49.456;2023-02-28T06:56:40;1.05;53.52
67555;HTU21D;54385;53.516;49.456;2023-02-28T06:59:10;0.90;55.00
67555;HTU21D;54385;53.516;49.456;2023-02-28T07:01:44;0.92;54.87
67555;HTU21D;54385;53.516;49.456;2023-02-28T07:04:13;0.92;55.04
67555;HTU21D;54385;53.516;49.456;2023-02-28T07:07:06;0.92;55.75
67555;HTU21D;54385;53.516;49.456;2023-02-28T07:09:32;0.80;57.10
67555;HTU21D;54385;53.516;49.456;2023-02-28T07:11:59;0.64;56.81
67555;HTU21D;54385;53.516;49.456;2023-02-28T07:14:26;0.71;56.49
67555;HTU21D;54385;53.516;49.456;2023-02-28T07:16:52;0.87;55.50
67555;HTU21D;54385;53.516;49.456;2023-02-28T07:19:19;0.73;56.59
67555;HTU21D;54385;53.516;49.456;2023-02-28T07:21:58;0.52;55.89
67555;HTU21D;54385;53.516;49.456;2023-02-28T07:24:59;0.68;54.82
67555;HTU21D;54385;53.516;49.456;2023-02-28T07:28:13;0.79;54.34
67555;HTU21D;54385;53.516;49.456;2023-02-28T07:30:45;0.86;55.79
67555;HTU21D;54385;53.516;49.456;2023-02-28T07:33:17;0.75;54.92
67555;HTU21D;54385;53.516;49.456;2023-02-28T07:35:44;0.94;56.30
67555;HTU21D;54385;53.516;49.456;2023-02-28T07:38:11;1.08;53.24
67555;HTU21D;54385;53.516;49.456;2023-02-28T07:40:45;1.03;54.70
67555;HTU21D;54385;53.516;49.456;2023-02-28T07:43:17;1.08;54.79
67555;HTU21D;54385;53.516;49.456;2023-02-28T07:46:06;1.10;55.27
67555;HTU21D;54385;53.516;49.456;2023-02-28T07:49:12;1.11;56.02
67555;HTU21D;54385;53.516;49.456;2023-02-28T07:52:24;0.97;54.85
67555;HTU21D;54385;53.516;49.456;2023-02-28T07:55:20;1.10;55.72
67555;HTU21D;54385;53.516;49.456;2023-02-28T07:58:18;1.09;55.63
67555;HTU21D;54385;53.516;49.456;2023-02-28T08:01:14;1.13;55.77
67555;HTU21D;54385;53.516;49.456;2023-02-28T08:03:47;1.18;55.17
67555;HTU21D;54385;53.516;49.456;2023-02-28T08:13:30;0.87;56.74
67555;HTU21D;54385;53.516;49.456;2023-02-28T08:16:10;0.82;56.50
67555;HTU21D;54385;53.516;49.456;2023-02-28T08:18:40;0.93;56.18
67555;HTU21D;54385;53.516;49.456;2023-02-28T08:21:10;1.03;55.73
67555;HTU21D;54385;53.516;49.456;2023-02-28T08:23:47;0.93;54.61
67555;HTU21D;54385;53.516;49.456;2023-02-28T08:26:35;0.98;55.99
67555;HTU21D;54385;53.516;49.456;2023-02-28T08:33:46;0.98;54.21
67555;HTU21D;54385;53.516;49.456;2023-02-28T08:36:43;0.93;54.90
67555;HTU21D;54385;53.516;49.456;2023-02-28T08:39:14;0.89;56.04
67555;HTU21D;54385;53.516;49.456;2023-02-28T08:41:46;0.98;54.87
67555;HTU21D;54385;53.516;49.456;2023-02-28T08:44:45;1.01;56.26
67555;HTU21D;54385;53.516;49.456;2023-02-28T08:48:23;1.23;55.59
67555;HTU21D;54385;53.516;49.456;2023-02-28T08:51:29;1.28;56.29
67555;HTU21D;54385;53.516;49.456;2023-02-28T08:53:59;1.35;55.61
67555;HTU21D;54385;53.516;49.456;2023-02-28T08:56:35;1.46;54.83
67555;HTU21D;54385;53.516;49.456;2023-02-28T08:59:35;1.77;53.00
67555;HTU21D;54385;53.516;49.456;2023-02-28T09:02:39;1.46;53.06
67555;HTU21D;54385;53.516;49.456;2023-02-28T09:05:06;1.45;54.74
67555;HTU21D;54385;53.516;49.456;2023-02-28T09:07:37;1.47;54.00
67555;HTU21D;54385;53.516;49.456;2023-02-28T09:12:40;1.40;53.74
67555;HTU21D;54385;53.516;49.456;2023-02-28T09:18:57;1.77;54.30
67555;HTU21D;54385;53.516;49.456;2023-02-28T09:21:25;1.70;53.94
67555;HTU21D;54385;53.516;49.456;2023-02-28T09:24:18;1.50;54.51
67555;HTU21D;54385;53.516;49.456;2023-02-28T09:27:06;1.17;55.31
67555;HTU21D;54385;53.516;49.456;2023-02-28T09:33:17;1.32;55.55
67555;HTU21D;54385;53.516;49.456;2023-02-28T09:39:30;1.43;53.84
67555;HTU21D;54385;53.516;49.456;2023-02-28T09:45:55;1.39;54.38
67555;HTU21D;54385;53.516;49.456;2023-02-28T09:49:04;1.25;53.62
67555;HTU21D;54385;53.516;49.456;2023-02-28T10:00:14;1.50;54.07
67555;HTU21D;54385;53.516;49.456;2023-02-28T10:16:34;1.23;56.42
67555;HTU21D;54385;53.516;49.456;2023-02-28T10:32:21;2.14;53.98
67555;HTU21D;54385;53.516;49.456;2023-02-28T10:35:32;2.30;54.18
67555;HTU21D;54385;53.516;49.456;2023-02-28T10:38:53;2.66;51.77
67555;HTU21D;54385;53.516;49.456;2023-02-28T10:42:03;2.68;51.81
67555;HTU21D;54385;53.516;49.456;2023-02-28T10:45:17;2.03;52.14
67555;HTU21D;54385;53.516;49.456;2023-02-28T10:48:27;1.92;54.24
67555;HTU21D;54385;53.516;49.456;2023-02-28T10:50:51;1.87;53.91
67555;HTU21D;54385;53.516;49.456;2023-02-28T10:53:58;2.00;53.38
67555;HTU21D;54385;53.516;49.456;2023-02-28T11:03:34;2.50;53.20
67555;HTU21D;54385;53.516;49.456;2023-02-28T11:06:18;2.56;52.05
67555;HTU21D;54385;53.516;49.456;2023-02-28T11:13:35;2.01;54.13
67555;HTU21D;54385;53.516;49.456;2023-02-28T11:16:06;1.73;53.68
67555;HTU21D;54385;53.516;49.456;2023-02-28T11:18:53;1.72;53.75
67555;HTU21D;54385;53.516;49.456;2023-02-28T11:21:54;1.95;53.44
67555;HTU21D;54385;53.516;49.456;2023-02-28T11:24:37;2.23;52.68
67555;HTU21D;54385;53.516;49.456;2023-02-28T11:30:00;2.03;52.90
67555;HTU21D;54385;53.516;49.456;2023-02-28T11:32:33;2.17;53.07
67555;HTU21D;54385;53.516;49.456;2023-02-28T11:35:28;2.45;51.59
67555;HTU21D;54385;53.516;49.456;2023-02-28T11:38:12;2.46;52.14
67555;HTU21D;54385;53.516;49.456;2023-02-28T11:49:30;3.26;50.16
67555;HTU21D;54385;53.516;49.456;2023-02-28T11:52:21;3.27;51.14
67555;HTU21D;54385;53.516;49.456;2023-02-28T11:58:47;3.36;50.11
67555;HTU21D;54385;53.516;49.456;2023-02-28T12:01:18;3.33;50.68
67555;HTU21D;54385;53.516;49.456;2023-02-28T12:04:24;3.32;50.56
67555;HTU21D;54385;53.516;49.456;2023-02-28T12:07:00;3.49;50.73
67555;HTU21D;54385;53.516;49.456;2023-02-28T12:15:18;4.14;49.22
67555;HTU21D;54385;53.516;49.456;2023-02-28T12:18:26;4.48;46.52
67555;HTU21D;54385;53.516;49.456;2023-02-28T12:21:45;4.10;47.87
67555;HTU21D;54385;53.516;49.456;2023-02-28T12:26:44;4.47;46.75
67555;HTU21D;54385;53.516;49.456;2023-02-28T12:29:19;4.36;46.44
67555;HTU21D;54385;53.516;49.456;2023-02-28T12:34:24;3.92;48.76
67555;HTU21D;54385;53.516;49.456;2023-02-28T12:36:56;3.82;48.41
67555;HTU21D;54385;53.516;49.456;2023-02-28T12:39:38;3.56;48.76
67555;HTU21D;54385;53.516;49.456;2023-02-28T12:42:14;3.63;49.40
67555;HTU21D;54385;53.516;49.456;2023-02-28T12:44:51;3.72;49.21
67555;HTU21D;54385;53.516;49.456;2023-02-28T12:47:19;3.69;48.41
67555;HTU21D;54385;53.516;49.456;2023-02-28T12:50:07;3.73;48.74
67555;HTU21D;54385;53.516;49.456;2023-02-28T12:53:04;3.17;48.77
67555;HTU21D;54385;53.516;49.456;2023-02-28T12:58:56;2.13;52.90
67555;HTU21D;54385;53.516;49.456;2023-02-28T13:10:45;1.42;54.48
67555;HTU21D;54385;53.516;49.456;2023-02-28T13:14:05;1.26;55.79
67555;HTU21D;54385;53.516;49.456;2023-02-28T13:19:44;1.51;55.93
67555;HTU21D;54385;53.516;49.456;2023-02-28T13:31:22;1.14;56.33
67555;HTU21D;54385;53.516;49.456;2023-02-28T13:36:34;0.86;57.44
67555;HTU21D;54385;53.516;49.456;2023-02-28T13:48:04;0.21;59.89
67555;HTU21D;54385;53.516;49.456;2023-02-28T13:50:35;0.10;60.68
67555;HTU21D;54385;53.516;49.456;2023-02-28T13:58:51;-0.51;63.45
67555;HTU21D;54385;53.516;49.456;2023-02-28T14:01:43;-0.67;64.16
67555;HTU21D;54385;53.516;49.456;2023-02-28T14:04:46;-0.77;64.30
67555;HTU21D;54385;53.516;49.456;2023-02-28T14:07:31;-0.86;65.16
67555;HTU21D;54385;53.516;49.456;2023-02-28T14:10:44;-0.98;65.44
67555;HTU21D;54385;53.516;49.456;2023-02-28T14:15:59;-1.11;66.36
67555;HTU21D;54385;53.516;49.456;2023-02-28T14:18:58;-1.10;66.27
67555;HTU21D;54385;53.516;49.456;2023-02-28T14:21:53;-1.33;67.19
67555;HTU21D;54385;53.516;49.456;2023-02-28T14:33:57;-1.56;68.13
67555;HTU21D;54385;53.516;49.456;2023-02-28T14:36:32;-1.58;68.25
67555;HTU21D;54385;53.516;49.456;2023-02-28T14:39:20;-1.69;68.36
67555;HTU21D;54385;53.516;49.456;2023-02-28T14:41:48;-1.84;68.62
67555;HTU21D;54385;53.516;49.456;2023-02-28T14:44:26;-1.87;68.95
67555;HTU21D;54385;53.516;49.456;2023-02-28T14:46:56;-1.87;68.85
67555;HTU21D;54385;53.516;49.456;2023-02-28T14:49:27;-1.93;69.07
67555;HTU21D;54385;53.516;49.456;2023-02-28T14:52:15;-1.95;69.12
67555;HTU21D;54385;53.516;49.456;2023-02-28T14:54:42;-1.92;68.51
67555;HTU21D;54385;53.516;49.456;2023-02-28T14:57:26;-2.03;68.85
67555;HTU21D;54385;53.516;49.456;2023-02-28T15:00:03;-2.06;68.94
67555;HTU21D;54385;53.516;49.456;2023-02-28T15:02:34;-2.13;68.75
67555;HTU21D;54385;53.516;49.456;2023-02-28T15:07:45;-2.15;68.81
67555;HTU21D;54385;53.516;49.456;2023-02-28T15:10:25;-2.13;68.55
67555;HTU21D;54385;53.516;49.456;2023-02-28T15:13:06;-2.12;67.75
67555;HTU21D;54385;53.516;49.456;2023-02-28T15:15:56;-2.18;68.27
67555;HTU21D;54385;53.516;49.456;2023-02-28T15:20:51;-2.31;68.81
67555;HTU21D;54385;53.516;49.456;2023-02-28T15:23:22;-2.38;68.92
67555;HTU21D;54385;53.516;49.456;2023-02-28T15:25:50;-2.42;69.61
67555;HTU21D;54385;53.516;49.456;2023-02-28T15:28:20;-2.44;69.30
67555;HTU21D;54385;53.516;49.456;2023-02-28T15:31:21;-2.51;69.61
67555;HTU21D;54385;53.516;49.456;2023-02-28T15:33:56;-2.57;69.61
67555;HTU21D;54385;53.516;49.456;2023-02-28T15:36:29;-2.61;69.65
67555;HTU21D;54385;53.516;49.456;2023-02-28T15:38:58;-2.60;69.40
67555;HTU21D;54385;53.516;49.456;2023-02-28T15:41:36;-2.57;69.13
67555;HTU21D;54385;53.516;49.456;2023-02-28T15:44:27;-2.54;69.04
67555;HTU21D;54385;53.516;49.456;2023-02-28T15:47:00;-2.63;68.88
67555;HTU21D;54385;53.516;49.456;2023-02-28T15:49:38;-2.66;68.84
67555;HTU21D;54385;53.516;49.456;2023-02-28T15:52:06;-2.69;69.01
67555;HTU21D;54385;53.516;49.456;2023-02-28T15:54:37;-2.69;69.47
67555;HTU21D;54385;53.516;49.456;2023-02-28T15:57:18;-2.66;68.84
67555;HTU21D;54385;53.516;49.456;2023-02-28T15:59:56;-2.62;68.34
67555;HTU21D;54385;53.516;49.456;2023-02-28T16:02:31;-2.62;68.26
67555;HTU21D;54385;53.516;49.456;2023-02-28T16:07:53;-2.67;68.89
67555;HTU21D;54385;53.516;49.456;2023-02-28T16:10:21;-2.64;68.71
67555;HTU21D;54385;53.516;49.456;2023-02-28T16:12:54;-2.63;67.97
67555;HTU21D;54385;53.516;49.456;2023-02-28T16:15:26;-2.57;67.90
67555;HTU21D;54385;53.516;49.456;2023-02-28T16:17:55;-2.57;67.69
67555;HTU21D;54385;53.516;49.456;2023-02-28T16:20:27;-2.72;68.22
67555;HTU21D;54385;53.516;49.456;2023-02-28T16:22:55;-2.80;68.72
67555;HTU21D;54385;53.516;49.456;2023-02-28T16:25:33;-2.89;69.62
67555;HTU21D;54385;53.516;49.456;2023-02-28T16:28:01;-2.89;69.11
67555;HTU21D;54385;53.516;49.456;2023-02-28T16:30:30;-2.90;69.37
67555;HTU21D;54385;53.516;49.456;2023-02-28T16:33:09;-2.91;68.69
67555;HTU21D;54385;53.516;49.456;2023-02-28T16:35:44;-2.94;69.21
67555;HTU21D;54385;53.516;49.456;2023-02-28T16:38:11;-2.98;69.21
67555;HTU21D;54385;53.516;49.456;2023-02-28T16:40:38;-3.01;69.71
67555;HTU21D;54385;53.516;49.456;2023-02-28T16:43:10;-2.98;69.06
67555;HTU21D;54385;53.516;49.456;2023-02-28T16:45:41;-2.95;69.03
67555;HTU21D;54385;53.516;49.456;2023-02-28T16:48:14;-3.04;68.96
67555;HTU21D;54385;53.516;49.456;2023-02-28T16:50:44;-3.08;68.91
67555;HTU21D;54385;53.516;49.456;2023-02-28T16:53:11;-3.04;69.50
67555;HTU21D;54385;53.516;49.456;2023-02-28T16:55:40;-3.01;68.80
67555;HTU21D;54385;53.516;49.456;2023-02-28T16:58:15;-3.00;69.08
67555;HTU21D;54385;53.516;49.456;2023-02-28T17:00:43;-2.87;67.83
67555;HTU21D;54385;53.516;49.456;2023-02-28T17:03:25;-2.82;67.55
67555;HTU21D;54385;53.516;49.456;2023-02-28T17:05:53;-2.90;67.80
67555;HTU21D;54385;53.516;49.456;2023-02-28T17:08:20;-2.87;67.89
67555;HTU21D;54385;53.516;49.456;2023-02-28T17:10:47;-2.87;67.80
67555;HTU21D;54385;53.516;49.456;2023-02-28T17:13:15;-2.94;67.96
67555;HTU21D;54385;53.516;49.456;2023-02-28T17:15:45;-2.90;67.95
67555;HTU21D;54385;53.516;49.456;2023-02-28T17:18:18;-2.93;68.05
67555;HTU21D;54385;53.516;49.456;2023-02-28T17:20:47;-2.93;68.19
67555;HTU21D;54385;53.516;49.456;2023-02-28T17:23:15;-2.92;67.71
67555;HTU21D;54385;53.516;49.456;2023-02-28T17:25:42;-2.90;67.77
67555;HTU21D;54385;53.516;49.456;2023-02-28T17:28:21;-2.90;68.29
67555;HTU21D;54385;53.516;49.456;2023-02-28T17:30:48;-2.89;68.08
67555;HTU21D;54385;53.516;49.456;2023-02-28T17:33:17;-2.80;67.26
67555;HTU21D;54385;53.516;49.456;2023-02-28T17:35:44;-2.78;66.98
67555;HTU21D;54385;53.516;49.456;2023-02-28T17:38:22;-2.82;67.04
67555;HTU21D;54385;53.516;49.456;2023-02-28T17:40:50;-2.82;67.17
67555;HTU21D;54385;53.516;49.456;2023-02-28T17:43:17;-2.81;67.24
67555;HTU21D;54385;53.516;49.456;2023-02-28T17:45:47;-2.86;67.33
67555;HTU21D;54385;53.516;49.456;2023-02-28T17:48:14;-2.87;67.35
67555;HTU21D;54385;53.516;49.456;2023-02-28T17:50:41;-2.82;67.63
67555;HTU21D;54385;53.516;49.456;2023-02-28T17:53:10;-2.82;67.39
67555;HTU21D;54385;53.516;49.456;2023-02-28T17:55:37;-2.86;67.67
67555;HTU21D;54385;53.516;49.456;2023-02-28T17:58:05;-2.90;67.51
67555;HTU21D;54385;53.516;49.456;2023-02-28T18:00:32;-2.86;67.24
67555;HTU21D;54385;53.516;49.456;2023-02-28T18:03:01;-2.86;66.88
67555;HTU21D;54385;53.516;49.456;2023-02-28T18:05:30;-2.84;67.07
67555;HTU21D;54385;53.516;49.456;2023-02-28T18:08:03;-2.80;66.91
67555;HTU21D;54385;53.516;49.456;2023-02-28T18:10:30;-2.89;67.04
67555;HTU21D;54385;53.516;49.456;2023-02-28T18:12:59;-2.95;67.18
67555;HTU21D;54385;53.516;49.456;2023-02-28T18:15:26;-2.97;67.26
67555;HTU21D;54385;53.516;49.456;2023-02-28T18:17:56;-2.97;67.31
67555;HTU21D;54385;53.516;49.456;2023-02-28T18:20:23;-3.05;67.49
67555;HTU21D;54385;53.516;49.456;2023-02-28T18:22:50;-3.02;67.14
67555;HTU21D;54385;53.516;49.456;2023-02-28T18:25:16;-3.02;67.23
67555;HTU21D;54385;53.516;49.456;2023-02-28T18:27:44;-2.95;67.17
67555;HTU21D;54385;53.516;49.456;2023-02-28T18:30:24;-2.91;66.72
67555;HTU21D;54385;53.516;49.456;2023-02-28T18:32:51;-3.03;67.28
67555;HTU21D;54385;53.516;49.456;2023-02-28T18:35:18;-2.95;66.98
67555;HTU21D;54385;53.516;49.456;2023-02-28T18:38:18;-2.91;67.20
67555;HTU21D;54385;53.516;49.456;2023-02-28T18:40:54;-2.89;67.59
67555;HTU21D;54385;53.516;49.456;2023-02-28T18:43:21;-2.82;66.98
67555;HTU21D;54385;53.516;49.456;2023-02-28T18:45:48;-2.79;66.04
67555;HTU21D;54385;53.516;49.456;2023-02-28T18:48:15;-2.87;66.14
67555;HTU21D;54385;53.516;49.456;2023-02-28T18:50:45;-2.86;66.13
67555;HTU21D;54385;53.516;49.456;2023-02-28T18:53:16;-2.81;65.85
67555;HTU21D;54385;53.516;49.456;2023-02-28T18:55:43;-2.84;66.69
67555;HTU21D;54385;53.516;49.456;2023-02-28T18:58:09;-2.89;66.47
67555;HTU21D;54385;53.516;49.456;2023-02-28T19:00:36;-2.93;65.99
67555;HTU21D;54385;53.516;49.456;2023-02-28T19:03:03;-2.95;66.36
67555;HTU21D;54385;53.516;49.456;2023-02-28T19:05:30;-3.01;66.65
67555;HTU21D;54385;53.516;49.456;2023-02-28T19:08:00;-3.03;67.25
67555;HTU21D;54385;53.516;49.456;2023-02-28T19:10:27;-3.03;66.91
67555;HTU21D;54385;53.516;49.456;2023-02-28T19:12:54;-2.92;66.41
67555;HTU21D;54385;53.516;49.456;2023-02-28T19:15:21;-2.91;66.05
67555;HTU21D;54385;53.516;49.456;2023-02-28T19:17:48;-2.96;66.88